createdAt,value
2022-11-23T00:00:59.311Z,-0.15
2022-11-23T00:06:34.083Z,-0.03
2022-11-23T00:11:56.286Z,-0.12
2022-11-23T00:17:20.645Z,-0.13
2022-11-23T00:22:43.607Z,-0.12
2022-11-23T00:28:05.922Z,-0.11
2022-11-23T00:33:28.126Z,-0.11
2022-11-23T00:38:51.799Z,-0.09
2022-11-23T00:44:14.472Z,-0.07
2022-11-23T00:49:36.796Z,-0.05
2022-11-23T00:54:59.021Z,-0.06
2022-11-23T01:00:24.452Z,-0.04
2022-11-23T01:05:48.302Z,-0.03
2022-11-23T01:11:14.545Z,-0.02
2022-11-23T01:16:44.348Z,-0.03
2022-11-23T01:22:01.171Z,-0.03
2022-11-23T01:27:24.219Z,-0.01
2022-11-23T01:32:48.422Z,-0.02
2022-11-23T01:38:16.663Z,-0.01
2022-11-23T01:43:36.068Z,-0.02
2022-11-23T01:49:09.836Z,-0.02
2022-11-23T01:54:51.877Z,-0.01
2022-11-23T02:00:14.870Z,-0.01
2022-11-23T02:05:46.402Z,-0.01
2022-11-23T02:11:09.929Z,-0.02
2022-11-23T02:16:34.302Z,-0.02
2022-11-23T02:21:57.656Z,-0.03
2022-11-23T02:27:20.616Z,-0.04
2022-11-23T02:32:45.130Z,-0.04
2022-11-23T02:38:11.846Z,-0.04
2022-11-23T02:55:01.233Z,-0.04
2022-11-23T03:00:24.770Z,-0.04
2022-11-23T03:05:48.168Z,-0.05
2022-11-23T03:11:10.372Z,-0.04
2022-11-23T03:16:34.308Z,-0.05
2022-11-23T03:21:56.998Z,-0.06
2022-11-23T03:27:19.955Z,-0.04
2022-11-23T03:32:42.581Z,-0.05
2022-11-23T03:38:07.323Z,-0.06
2022-11-23T03:43:31.213Z,-0.06
2022-11-23T03:48:54.861Z,-0.06
2022-11-23T03:54:17.308Z,-0.06
2022-11-23T03:59:39.522Z,-0.06
2022-11-23T04:05:02.460Z,-0.07
2022-11-23T04:10:26.873Z,-0.06
2022-11-23T04:15:49.517Z,-0.08
2022-11-23T04:21:11.817Z,-0.10
2022-11-23T04:26:34.740Z,-0.10
2022-11-23T04:31:56.953Z,-0.11
2022-11-23T04:37:19.984Z,-0.10
2022-11-23T04:42:43.050Z,-0.10
2022-11-23T04:48:05.322Z,-0.09
2022-11-23T04:53:27.707Z,-0.07
2022-11-23T04:58:49.894Z,-0.09
2022-11-23T05:04:17.620Z,-0.06
2022-11-23T05:09:39.375Z,-0.06
2022-11-23T05:15:01.588Z,-0.04
2022-11-23T05:20:26.123Z,-0.02
2022-11-23T05:25:50.839Z,0.01
2022-11-23T05:31:13.715Z,0.01
2022-11-23T05:36:40.825Z,0.01
2022-11-23T05:41:59.982Z,0.02
2022-11-23T05:47:22.764Z,0.01
2022-11-23T05:52:45.518Z,0.01
2022-11-23T05:58:09.472Z,0.03
2022-11-23T06:03:32.217Z,0.03
2022-11-23T06:08:54.523Z,0.05
2022-11-23T06:14:17.432Z,0.06
2022-11-23T06:19:42.036Z,0.08
2022-11-23T06:25:04.215Z,0.08
2022-11-23T06:30:28.313Z,0.10
2022-11-23T06:36:01.634Z,0.08
2022-11-23T06:41:29.513Z,0.11
2022-11-23T06:46:50.379Z,0.12
2022-11-23T06:52:14.069Z,0.14
2022-11-23T06:57:36.296Z,0.14
2022-11-23T07:03:06.008Z,0.16
2022-11-23T07:08:30.817Z,0.18
2022-11-23T07:13:56.015Z,0.20
2022-11-23T07:19:20.329Z,0.19
2022-11-23T07:24:46.745Z,0.19
2022-11-23T07:30:07.773Z,0.18
2022-11-23T07:35:33.506Z,0.19
2022-11-23T07:40:56.672Z,0.21
2022-11-23T07:46:21.358Z,0.19
2022-11-23T07:51:44.296Z,0.23
2022-11-23T07:57:07.983Z,0.23
2022-11-23T08:02:33.687Z,0.23
2022-11-23T08:07:57.620Z,0.24
2022-11-23T08:13:21.553Z,0.22
2022-11-23T08:18:45.043Z,0.22
2022-11-23T08:24:09.772Z,0.24
2022-11-23T08:29:34.174Z,0.23
2022-11-23T08:34:58.892Z,0.24
2022-11-23T08:40:25.813Z,0.24
2022-11-23T08:45:50.463Z,0.24
2022-11-23T08:51:14.880Z,0.18
2022-11-23T08:56:37.844Z,0.19
2022-11-23T09:02:01.010Z,0.17
2022-11-23T09:07:23.432Z,0.17
2022-11-23T09:12:45.992Z,0.19
2022-11-23T09:18:09.474Z,0.18
2022-11-23T09:23:32.112Z,0.22
2022-11-23T09:28:54.307Z,0.20
2022-11-23T09:34:19.049Z,0.17
2022-11-23T09:39:41.769Z,0.15
2022-11-23T09:45:31.331Z,0.17
2022-11-23T09:51:00.519Z,0.16
2022-11-23T09:56:29.210Z,0.13
2022-11-23T10:01:51.522Z,0.15
2022-11-23T10:07:21.195Z,0.13
2022-11-23T10:13:27.444Z,0.13
2022-11-23T10:19:12.403Z,0.12
2022-11-23T10:24:51.078Z,0.25
2022-11-23T10:30:16.057Z,0.18
2022-11-23T10:35:47.640Z,0.22
2022-11-23T10:46:57.357Z,0.43
2022-11-23T10:52:33.805Z,0.24
2022-11-23T10:58:04.947Z,0.33
2022-11-23T11:03:37.379Z,0.35
2022-11-23T11:09:16.265Z,0.35
2022-11-23T11:14:43.383Z,0.37
2022-11-23T11:20:04.472Z,0.37
2022-11-23T11:25:45.364Z,0.38
2022-11-23T11:31:30.154Z,0.41
2022-11-23T11:37:09.203Z,0.43
2022-11-23T11:42:53.570Z,0.44
2022-11-23T11:48:29.583Z,0.45
2022-11-23T11:53:59.912Z,0.49
2022-11-23T12:05:18.284Z,0.52
2022-11-23T12:10:51.026Z,0.48
2022-11-23T12:16:36.954Z,0.52
2022-11-23T12:22:32.898Z,0.57
2022-11-23T12:28:21.157Z,0.61
2022-11-23T12:34:13.698Z,0.64
2022-11-23T12:40:17.127Z,0.64
2022-11-23T12:46:09.958Z,0.63
2022-11-23T12:51:55.668Z,0.61
2022-11-23T12:57:38.901Z,0.69
2022-11-23T13:03:48.000Z,0.67
2022-11-23T13:09:23.818Z,0.62
2022-11-23T13:15:26.035Z,0.66
2022-11-23T13:21:12.421Z,0.71
2022-11-23T13:26:40.419Z,0.68
2022-11-23T13:32:06.305Z,0.66
2022-11-23T13:37:28.743Z,0.64
2022-11-23T13:42:53.500Z,0.64
2022-11-23T13:54:03.539Z,0.63
2022-11-23T13:59:39.008Z,0.56
2022-11-23T14:05:07.236Z,0.55
2022-11-23T14:10:38.063Z,0.55
2022-11-23T14:16:08.813Z,0.54
2022-11-23T14:21:51.202Z,0.53
2022-11-23T14:27:47.575Z,0.52
2022-11-23T14:33:18.523Z,0.53
2022-11-23T14:39:08.115Z,0.51
2022-11-23T14:44:38.618Z,0.51
2022-11-23T14:50:14.637Z,0.52
2022-11-23T14:55:43.957Z,0.51
2022-11-23T15:01:10.117Z,0.50
2022-11-23T15:06:44.070Z,0.49
2022-11-23T15:12:17.540Z,0.47
2022-11-23T15:17:41.306Z,0.43
2022-11-23T15:23:04.152Z,0.41
2022-11-23T15:28:34.921Z,0.42
2022-11-23T15:34:05.979Z,0.42
2022-11-23T15:39:38.052Z,0.40
2022-11-23T15:45:00.289Z,0.41
2022-11-23T15:50:29.867Z,0.40
2022-11-23T15:55:51.043Z,0.40
2022-11-23T16:01:22.417Z,0.39
2022-11-23T16:06:56.255Z,0.40
2022-11-23T16:12:30.650Z,0.41
2022-11-23T16:17:54.727Z,0.40
2022-11-23T16:23:18.680Z,0.40
2022-11-23T16:28:44.372Z,0.39
2022-11-23T16:34:06.748Z,0.44
2022-11-23T16:39:30.074Z,0.47
2022-11-23T16:44:52.333Z,0.49
2022-11-23T16:50:16.593Z,0.46
2022-11-23T16:55:42.268Z,0.43
2022-11-23T17:01:03.684Z,0.41
2022-11-23T17:06:27.505Z,0.44
2022-11-23T17:11:54.238Z,0.43
2022-11-23T17:17:17.721Z,0.41
2022-11-23T17:22:39.950Z,0.38
2022-11-23T17:28:03.687Z,0.39
2022-11-23T17:33:27.817Z,0.40
2022-11-23T17:38:50.445Z,0.41
2022-11-23T17:44:14.418Z,0.38
2022-11-23T17:49:38.085Z,0.36
2022-11-23T17:55:00.280Z,0.32
2022-11-23T18:00:33.134Z,0.28
2022-11-23T18:05:55.816Z,0.28
2022-11-23T18:11:18.671Z,0.25
2022-11-23T18:16:41.938Z,0.23
2022-11-23T18:22:04.164Z,0.21
2022-11-23T18:27:29.754Z,0.21
2022-11-23T18:32:54.476Z,0.21
2022-11-23T18:38:19.162Z,0.18
2022-11-23T18:43:42.080Z,0.17
2022-11-23T18:49:05.940Z,0.16
2022-11-23T18:54:30.136Z,0.17
2022-11-23T18:59:58.814Z,0.16
2022-11-23T19:05:20.570Z,0.14
2022-11-23T19:10:44.804Z,0.06
2022-11-23T19:16:10.935Z,-0.05
2022-11-23T19:21:36.881Z,-0.13
2022-11-23T19:26:59.197Z,-0.18
2022-11-23T19:32:21.511Z,-0.21
2022-11-23T19:37:43.802Z,-0.22
2022-11-23T19:43:06.646Z,-0.25
2022-11-23T19:48:28.938Z,-0.28
2022-11-23T19:53:55.455Z,-0.36
2022-11-23T19:59:20.088Z,-0.42
2022-11-23T20:04:44.560Z,-0.39
2022-11-23T20:10:07.037Z,-0.44
2022-11-23T20:15:29.455Z,-0.47
2022-11-23T20:20:55.937Z,-0.49
2022-11-23T20:26:21.562Z,-0.50
2022-11-23T20:31:47.146Z,-0.53
2022-11-23T20:37:09.562Z,-0.57
2022-11-23T20:42:31.861Z,-0.57
2022-11-23T20:47:54.930Z,-0.67
2022-11-23T20:53:21.151Z,-0.71
2022-11-23T20:58:44.984Z,-0.77
2022-11-23T21:04:13.907Z,-0.83
2022-11-23T21:09:38.305Z,-0.89
2022-11-23T21:15:01.406Z,-0.93
2022-11-23T21:20:23.796Z,-0.97
2022-11-23T21:25:46.964Z,-1.05
2022-11-23T21:31:15.144Z,-1.06
2022-11-23T21:36:41.579Z,-1.03
2022-11-23T21:42:07.789Z,-1.02
2022-11-23T21:47:32.024Z,-1.03
2022-11-23T21:52:54.309Z,-1.04
2022-11-23T21:58:17.968Z,-1.05
2022-11-23T22:09:39.360Z,-1.09
2022-11-23T22:15:02.186Z,-1.12
2022-11-23T22:20:26.926Z,-1.13
2022-11-23T22:25:52.262Z,-1.12
2022-11-23T22:31:16.151Z,-1.12
2022-11-23T22:36:40.408Z,-1.11
2022-11-23T22:42:05.213Z,-1.13
2022-11-23T22:47:27.968Z,-1.15
2022-11-23T22:52:52.183Z,-1.17
2022-11-23T22:58:14.954Z,-1.19
2022-11-23T23:03:38.006Z,-1.16
2022-11-23T23:09:03.351Z,-1.20
2022-11-23T23:14:26.270Z,-1.21
2022-11-23T23:19:49.956Z,-1.20
2022-11-23T23:25:14.631Z,-1.21
2022-11-23T23:30:37.641Z,-1.22
2022-11-23T23:36:00.425Z,-1.21
2022-11-23T23:41:24.999Z,-1.25
2022-11-23T23:46:47.811Z,-1.30
2022-11-23T23:52:11.456Z,-1.27
2022-11-23T23:57:35.978Z,-1.30
